Time;durP1;ratioP1;P1;durP2;ratioP2;P2;SDS_P1;SDS_P2;PMS_P1;PMS_P2;Temp;Humidity;BMP_temperature;BMP_pressure;BME280_temperature;BME280_humidity;BME280_pressure;Samples;Min_cycle;Max_cycle;Signal;HPM_P1;HPM_P2
2022/01/28 00:02:30;;;;;;;22.50;9.00;;;;;;;-1.59;89.00;97804.06;5009334;28;20041;-74
2022/01/28 00:04:55;;;;;;;19.33;8.93;;;;;;;-1.66;89.09;97806.75;5010453;28;20034;-74
2022/01/28 00:07:21;;;;;;;17.98;8.30;;;;;;;-1.69;90.75;97819.88;5010565;28;20076;-74
2022/01/28 00:09:46;;;;;;;16.77;8.80;;;;;;;-1.61;89.37;97795.34;5009597;28;20029;-74
2022/01/28 00:12:13;;;;;;;20.52;9.35;;;;;;;-1.58;90.00;97806.69;5008351;28;20125;-74
2022/01/28 00:14:47;;;;;;;18.45;8.15;;;;;;;-1.48;87.37;97802.22;4990023;28;20466;-74
2022/01/28 00:17:44;;;;;;;17.92;8.07;;;;;;;-1.37;86.37;97806.44;5008742;28;20044;-76
2022/01/28 00:38:48;;;;;;;20.27;8.50;;;;;;;-0.45;80.31;97757.09;5009686;28;20032;-73
2022/01/28 00:41:15;;;;;;;14.70;7.15;;;;;;;-0.45;79.78;97756.22;5009093;28;20120;-73
2022/01/28 00:43:41;;;;;;;19.10;9.20;;;;;;;-0.54;79.74;97746.72;5009207;28;20026;-73
2022/01/28 00:46:07;;;;;;;21.83;9.30;;;;;;;-0.33;79.46;97758.66;5009094;28;20104;-73
2022/01/28 00:48:33;;;;;;;21.60;9.75;;;;;;;-0.09;77.69;97742.47;4992699;28;20048;-73
2022/01/28 00:50:58;;;;;;;20.25;10.38;;;;;;;-0.07;76.95;97740.72;5009185;28;20030;-74
2022/01/28 00:53:24;;;;;;;19.80;9.30;;;;;;;-0.06;76.68;97732.78;4995350;28;20036;-73
2022/01/28 00:55:49;;;;;;;24.92;10.10;;;;;;;-0.03;76.75;97742.38;5012449;28;20112;-73
2022/01/28 00:58:15;;;;;;;26.75;11.27;;;;;;;-0.24;79.81;97750.63;5012727;28;20087;-74
2022/01/28 01:00:41;;;;;;;25.27;10.68;;;;;;;-0.46;78.72;97725.63;4992914;28;20034;-73
2022/01/28 01:03:07;;;;;;;22.48;10.15;;;;;;;-0.64;81.10;97740.75;5008142;28;20101;-73
2022/01/28 01:05:34;;;;;;;19.90;9.95;;;;;;;-0.82;80.89;97730.50;5012237;28;20033;-73
2022/01/28 01:08:01;;;;;;;26.55;12.05;;;;;;;-1.05;82.05;97721.22;5012458;28;20115;-75
2022/01/28 01:10:27;;;;;;;30.35;14.40;;;;;;;-1.16;83.91;97737.97;4996338;28;20121;-73
2022/01/28 01:12:53;;;;;;;29.75;13.40;;;;;;;-1.39;85.67;97731.28;5013509;28;20026;-74
2022/01/28 01:15:22;;;;;;;82.28;29.92;;;;;;;-1.53;85.16;97718.34;5012169;28;20087;-73
2022/01/28 01:18:04;;;;;;;100.65;35.17;;;;;;;-1.52;87.40;97730.56;4996286;28;20560;-74
2022/01/28 01:25:29;;;;;;;94.28;28.90;;;;;;;-1.77;88.44;97716.00;5013221;28;20026;-74
2022/01/28 01:27:57;;;;;;;84.70;29.67;;;;;;;-1.80;89.47;97719.53;5011856;28;20559;-73
2022/01/28 01:30:26;;;;;;;78.07;28.23;;;;;;;-1.83;91.01;97706.44;5012983;28;20033;-74
2022/01/28 01:32:51;;;;;;;72.95;24.05;;;;;;;-1.77;89.01;97701.13;5011835;28;20412;-73
2022/01/28 01:35:17;;;;;;;64.38;22.30;;;;;;;-1.77;89.84;97709.00;5011952;28;20108;-73
2022/01/28 01:37:43;;;;;;;43.08;16.23;;;;;;;-1.71;88.69;97693.19;5012030;28;20117;-73
2022/01/28 01:40:09;;;;;;;38.45;13.18;;;;;;;-1.87;88.94;97688.13;5013005;28;20026;-75
2022/01/28 01:42:48;;;;;;;39.47;13.60;;;;;;;-1.90;90.20;97691.66;5011628;28;20393;-73
2022/01/28 01:45:49;;;;;;;33.00;13.60;;;;;;;-1.88;91.06;97692.53;5013131;28;20382;-74
2022/01/28 01:53:59;;;;;;;31.88;13.65;;;;;;;-1.85;88.70;97668.91;4952471;28;20123;-74
2022/01/28 01:56:25;;;;;;;27.75;10.82;;;;;;;-1.77;87.38;97676.69;4936201;29;20581;-74
2022/01/28 01:58:51;;;;;;;25.02;10.48;;;;;;;-1.79;87.74;97668.84;4968738;28;20041;-73
2022/01/28 02:01:17;;;;;;;22.10;9.55;;;;;;;-1.69;87.44;97665.22;5011664;28;20084;-73
2022/01/28 02:03:43;;;;;;;31.98;13.38;;;;;;;-1.73;90.06;97670.53;5010040;28;20022;-74
2022/01/28 02:06:09;;;;;;;56.97;21.85;;;;;;;-1.80;89.14;97661.84;4994699;28;20397;-73
2022/01/28 02:08:34;;;;;;;67.65;23.90;;;;;;;-1.81;89.41;97669.72;5011237;28;20502;-73
2022/01/28 02:11:00;;;;;;;61.58;24.70;;;;;;;-1.81;89.67;97654.88;5011102;28;20033;-74
2022/01/28 02:13:30;;;;;;;38.35;16.20;;;;;;;-1.73;89.50;97658.28;4994898;28;20025;-74
2022/01/28 02:15:58;;;;;;;32.25;12.43;;;;;;;-1.68;89.42;97656.47;4994633;28;20053;-74
2022/01/28 02:18:24;;;;;;;18.65;7.30;;;;;;;-1.51;86.38;97647.53;5011304;28;20481;-73
2022/01/28 02:20:52;;;;;;;21.48;9.60;;;;;;;-1.52;86.88;97637.91;5010871;28;20405;-74
2022/01/28 02:23:23;;;;;;;15.85;7.85;;;;;;;-1.34;86.03;97656.91;5012506;28;20104;-74
2022/01/28 02:25:49;;;;;;;17.35;8.45;;;;;;;-1.37;85.62;97653.44;5010963;28;20022;-73
2022/01/28 02:28:18;;;;;;;20.17;8.35;;;;;;;-1.40;86.74;97645.63;5010801;28;20044;-72
2022/01/28 02:30:44;;;;;;;17.90;8.48;;;;;;;-1.44;87.15;97652.66;5010827;28;20022;-73
2022/01/28 02:33:16;;;;;;;19.98;9.07;;;;;;;-1.46;88.03;97651.81;4994465;28;21251;-73
2022/01/28 02:35:43;;;;;;;16.90;8.13;;;;;;;-1.39;87.23;97648.25;5012187;28;20029;-73
2022/01/28 02:38:09;;;;;;;24.85;13.07;;;;;;;-1.39;87.17;97645.63;5010486;28;20026;-74
2022/01/28 02:40:36;;;;;;;37.60;19.90;;;;;;;-1.42;86.00;97634.28;5010622;28;20083;-74
2022/01/28 02:45:47;;;;;;;18.33;8.73;;;;;;;-1.44;87.28;97626.44;5010997;28;20469;-74
2022/01/28 02:48:19;;;;;;;40.03;17.02;;;;;;;-1.49;85.64;97627.38;5011658;28;20022;-74
2022/01/28 02:53:25;;;;;;;41.47;17.92;;;;;;;-1.53;87.04;97630.94;5010715;28;20348;-73
2022/01/28 02:56:01;;;;;;;41.17;18.90;;;;;;;-1.53;86.32;97618.69;5010046;28;20068;-74
2022/01/28 02:58:27;;;;;;;35.13;16.55;;;;;;;-1.58;87.96;97615.28;5010675;28;20052;-73
2022/01/28 03:00:57;;;;;;;41.65;20.17;;;;;;;-1.75;90.32;97623.34;5010196;28;20034;-74
2022/01/28 03:03:23;;;;;;;35.47;15.57;;;;;;;-1.74;90.12;97625.09;5010385;28;20022;-74
2022/01/28 03:05:53;;;;;;;32.30;13.10;;;;;;;-1.80;88.03;97635.66;5010367;28;20116;-73
2022/01/28 03:08:22;;;;;;;35.67;14.63;;;;;;;-1.82;89.24;97637.44;5010389;28;20461;-74
2022/01/28 03:15:41;;;;;;;37.75;16.92;;;;;;;-1.96;91.54;97620.09;5009892;28;20026;-74
2022/01/28 03:18:11;;;;;;;38.25;17.83;;;;;;;-2.12;92.89;97614.19;5010079;28;20030;-73
2022/01/28 03:20:44;;;;;;;57.40;26.05;;;;;;;-1.93;90.40;97607.84;4994398;28;20025;-73
2022/01/28 03:23:10;;;;;;;32.63;14.15;;;;;;;-1.85;89.08;97613.88;5010098;28;20049;-74
2022/01/28 03:25:41;;;;;;;36.92;13.30;;;;;;;-1.97;89.30;97608.75;5010089;28;20030;-74
2022/01/28 03:28:06;;;;;;;51.72;23.15;;;;;;;-2.02;89.79;97620.19;5009778;28;20068;-74
2022/01/28 03:30:32;;;;;;;43.95;20.30;;;;;;;-1.87;89.75;97610.38;5011212;28;20029;-74
2022/01/28 03:32:58;;;;;;;34.10;15.70;;;;;;;-1.76;88.72;97603.28;4993450;28;20032;-74
2022/01/28 03:35:23;;;;;;;68.70;29.42;;;;;;;-1.77;90.39;97598.91;5003269;28;20049;-74
2022/01/28 03:37:58;;;;;;;41.55;17.27;;;;;;;-1.67;87.75;97590.06;5009934;28;20021;-74
2022/01/28 03:40:23;;;;;;;41.15;16.25;;;;;;;-1.75;87.66;97601.50;5009732;28;20084;-75
2022/01/28 03:42:49;;;;;;;36.30;17.90;;;;;;;-1.80;88.31;97583.22;5026195;28;20029;-74
2022/01/28 03:45:15;;;;;;;33.00;12.68;;;;;;;-1.66;88.17;97589.13;5010623;28;20045;-72
2022/01/28 03:47:40;;;;;;;63.40;31.92;;;;;;;-1.67;87.13;97589.19;5011125;28;20026;-74
2022/01/28 03:50:06;;;;;;;50.50;23.95;;;;;;;-1.62;86.45;97587.34;4990353;28;20441;-73
2022/01/28 03:52:32;;;;;;;44.28;18.88;;;;;;;-1.49;85.78;97582.81;5009715;28;20038;-74
2022/01/28 03:54:57;;;;;;;71.82;32.78;;;;;;;-1.65;87.44;97572.53;5009402;28;20111;-74
2022/01/28 03:57:23;;;;;;;75.25;33.10;;;;;;;-1.55;87.56;97578.53;5010867;28;20034;-74
2022/01/28 03:59:48;;;;;;;35.58;16.35;;;;;;;-1.56;87.48;97583.78;5010608;28;20050;-73
2022/01/28 04:02:30;;;;;;;52.47;20.52;;;;;;;-1.65;86.87;97551.56;5009560;28;20397;-76
2022/01/28 04:12:51;;;;;;;51.38;22.35;;;;;;;-0.94;80.83;97570.56;5009624;28;20109;-73
2022/01/28 04:15:24;;;;;;;23.83;10.85;;;;;;;-0.84;80.31;97573.91;5026084;28;20707;-74
2022/01/28 04:17:50;;;;;;;25.38;12.07;;;;;;;-0.46;77.45;97560.97;4994010;28;20045;-73
2022/01/28 04:20:16;;;;;;;17.23;7.88;;;;;;;-0.20;76.97;97552.59;5009364;28;20358;-73
2022/01/28 04:22:42;;;;;;;21.88;8.82;;;;;;;0.14;74.30;97572.06;5009033;28;20028;-73
2022/01/28 04:25:08;;;;;;;42.75;19.35;;;;;;;-0.04;75.13;97559.28;5010617;28;20030;-73
2022/01/28 04:27:33;;;;;;;32.88;14.93;;;;;;;-0.07;75.00;97559.34;5010934;28;20030;-74
2022/01/28 04:29:59;;;;;;;22.27;9.15;;;;;;;0.06;73.85;97563.47;5014592;28;20507;-73
2022/01/28 04:32:27;;;;;;;13.18;6.93;;;;;;;0.37;71.60;97547.91;5013064;28;20462;-73
2022/01/28 04:34:54;;;;;;;29.33;13.13;;;;;;;0.38;72.98;97552.25;5012888;28;20379;-74
2022/01/28 04:44:58;;;;;;;57.10;22.85;;;;;;;-0.18;75.35;97566.56;5012809;28;20550;-74
2022/01/28 04:47:49;;;;;;;52.15;21.35;;;;;;;-0.31;76.40;97562.47;4996801;28;20060;-78
2022/01/28 04:50:56;;;;;;;54.55;22.27;;;;;;;-0.42;77.15;97562.66;5014182;28;20030;-78
2022/01/28 05:01:20;;;;;;;45.00;17.98;;;;;;;-0.71;79.67;97576.28;4998677;28;20046;-78
2022/01/28 05:06:51;;;;;;;48.22;20.27;;;;;;;-0.97;81.88;97583.75;5012694;28;20037;-75
2022/01/28 05:15:04;;;;;;;58.72;24.50;;;;;;;-1.29;85.69;97588.66;5012431;28;20026;-75
2022/01/28 05:27:56;;;;;;;54.10;22.50;;;;;;;-1.67;87.02;97604.91;5011969;28;20026;-78
2022/01/28 05:30:22;;;;;;;78.85;31.13;;;;;;;-1.67;87.94;97608.41;4995695;28;20054;-76
2022/01/28 05:32:47;;;;;;;127.65;47.25;;;;;;;-1.58;88.18;97607.41;5011613;28;20037;-77
2022/01/28 05:35:13;;;;;;;120.47;44.40;;;;;;;-1.73;87.66;97595.38;5011846;28;20022;-75
2022/01/28 05:37:38;;;;;;;92.30;35.53;;;;;;;-1.69;87.94;97620.63;4994626;28;20066;-77
2022/01/28 05:40:05;;;;;;;118.63;42.80;;;;;;;-1.69;87.47;97619.75;4995300;28;20030;-76
2022/01/28 05:42:30;;;;;;;117.47;45.10;;;;;;;-1.76;87.61;97628.63;5007467;28;20025;-76
2022/01/28 05:44:56;;;;;;;127.90;51.67;;;;;;;-1.91;88.60;97616.56;5011434;28;20045;-76
2022/01/28 05:47:24;;;;;;;153.20;63.08;;;;;;;-1.92;89.23;97619.19;5011649;28;20026;-77
2022/01/28 05:49:50;;;;;;;183.65;76.15;;;;;;;-1.87;89.37;97628.72;5011399;28;20021;-76
2022/01/28 05:52:15;;;;;;;139.00;56.60;;;;;;;-1.85;88.98;97621.75;5011871;28;20485;-76
2022/01/28 05:54:41;;;;;;;148.20;63.13;;;;;;;-1.99;90.64;97626.25;5011193;28;20112;-76
2022/01/28 05:57:07;;;;;;;155.55;60.03;;;;;;;-1.98;91.46;97621.88;4994838;28;20492;-77
2022/01/28 05:59:32;;;;;;;70.25;30.20;;;;;;;-1.76;87.77;97621.63;4994920;28;20083;-78
2022/01/28 06:01:58;;;;;;;70.10;26.27;;;;;;;-1.49;85.15;97611.66;5011139;28;20053;-77
2022/01/28 06:04:23;;;;;;;84.25;31.95;;;;;;;-1.50;85.48;97617.78;4982379;28;20026;-76
2022/01/28 06:06:49;;;;;;;46.58;19.88;;;;;;;-1.21;82.02;97628.75;4992508;28;20033;-77
2022/01/28 06:09:15;;;;;;;83.85;35.33;;;;;;;-1.20;82.97;97636.56;4994555;28;20025;-78
2022/01/28 06:11:43;;;;;;;77.22;34.90;;;;;;;-1.16;83.04;97625.16;5010975;28;20414;-76
2022/01/28 06:14:09;;;;;;;100.13;44.05;;;;;;;-0.99;83.63;97621.41;5011249;28;20022;-75
2022/01/28 06:16:34;;;;;;;126.03;52.70;;;;;;;-0.98;81.30;97629.25;4994774;28;20030;-76
2022/01/28 06:19:01;;;;;;;123.15;53.80;;;;;;;-1.05;82.10;97632.00;4994277;28;20026;-77
2022/01/28 06:21:26;;;;;;;134.35;60.13;;;;;;;-1.24;83.41;97636.66;4994361;28;20026;-77
2022/01/28 06:23:52;;;;;;;230.75;95.65;;;;;;;-1.30;83.16;97644.63;5010620;28;20038;-77
2022/01/28 06:26:18;;;;;;;183.90;79.75;;;;;;;-1.42;83.94;97648.28;4979622;28;20489;-78
2022/01/28 06:28:44;;;;;;;124.00;52.20;;;;;;;-1.15;82.75;97652.25;4994351;28;20018;-76
2022/01/28 06:31:10;;;;;;;144.75;62.85;;;;;;;-0.99;81.87;97652.91;5010448;28;20022;-83
2022/01/28 06:33:36;;;;;;;182.32;75.28;;;;;;;-0.82;80.88;97643.00;5008750;28;20022;-86
2022/01/28 06:36:03;;;;;;;183.88;79.22;;;;;;;-0.49;79.09;97649.47;4963420;28;20458;-86
2022/01/28 06:38:29;;;;;;;124.55;54.65;;;;;;;-0.12;76.96;97637.41;5005473;28;20029;-86
2022/01/28 06:40:55;;;;;;;108.85;47.25;;;;;;;1.26;72.51;97642.38;5012619;28;20030;-86
2022/01/28 06:43:21;;;;;;;97.60;42.63;;;;;;;3.03;62.79;97621.63;5011946;28;20084;-89
2022/01/28 06:45:50;;;;;;;173.32;82.70;;;;;;;4.54;59.57;97620.84;5013124;28;20128;-86
2022/01/28 06:48:19;;;;;;;156.40;72.22;;;;;;;6.42;55.35;97603.38;4995198;28;20038;-87
2022/01/28 06:50:45;;;;;;;129.27;60.17;;;;;;;8.73;47.74;97591.00;4994630;28;20029;-86
2022/01/28 06:53:14;;;;;;;130.82;64.38;;;;;;;9.99;41.89;97563.31;5010588;28;20029;-87
2022/01/28 06:55:40;;;;;;;114.82;54.03;;;;;;;10.97;39.96;97558.19;4994948;28;20038;-86
2022/01/28 06:58:07;;;;;;;148.25;68.82;;;;;;;11.34;38.96;97562.91;4994952;28;20034;-87
2022/01/28 07:00:37;;;;;;;199.23;91.45;;;;;;;10.45;41.03;97566.78;5007666;28;20116;-88
2022/01/28 07:03:10;;;;;;;159.85;73.18;;;;;;;12.06;37.95;97569.75;4995819;28;20095;-87
2022/01/28 07:05:36;;;;;;;555.88;96.07;;;;;;;13.26;35.49;97541.53;5017083;28;20444;-88
2022/01/28 07:08:03;;;;;;;278.90;96.63;;;;;;;13.33;35.03;97544.63;5018759;28;20033;-88
2022/01/28 07:10:28;;;;;;;279.13;103.70;;;;;;;13.50;36.32;97555.84;4995398;28;20046;-88
2022/01/28 07:12:57;;;;;;;273.05;93.40;;;;;;;15.21;33.91;97544.38;5011312;28;20034;-87
2022/01/28 07:15:24;;;;;;;270.45;111.53;;;;;;;16.64;31.71;97554.88;5009876;28;20406;-88
2022/01/28 07:17:57;;;;;;;379.00;161.20;;;;;;;17.65;29.89;97532.31;5011499;28;20125;-88
2022/01/28 07:20:23;;;;;;;228.68;120.38;;;;;;;16.67;30.34;97524.91;5010331;28;20034;-87
2022/01/28 07:22:49;;;;;;;195.95;113.03;;;;;;;15.59;31.60;97546.69;4994867;28;20069;-87
2022/01/28 07:25:15;;;;;;;235.60;133.98;;;;;;;14.08;33.58;97555.06;5011243;28;20029;-87
2022/01/28 07:27:41;;;;;;;207.77;110.10;;;;;;;14.31;34.21;97564.06;5007722;28;20057;-87
2022/01/28 07:30:08;;;;;;;194.93;81.97;;;;;;;15.72;31.45;97556.34;4992850;28;20092;-88
2022/01/28 07:32:34;;;;;;;149.20;64.68;;;;;;;14.49;33.06;97562.69;5012022;28;20435;-86
2022/01/28 07:35:00;;;;;;;112.07;58.42;;;;;;;16.12;32.10;97569.19;4992456;28;20038;-87
2022/01/28 07:37:26;;;;;;;189.40;80.68;;;;;;;16.88;30.20;97538.38;4984443;28;20029;-90
2022/01/28 07:39:51;;;;;;;164.32;69.90;;;;;;;15.74;31.65;97553.53;5007597;28;20051;-90
2022/01/28 07:42:18;;;;;;;144.27;66.65;;;;;;;14.21;33.67;97573.84;4994913;28;20030;-89
2022/01/28 07:44:44;;;;;;;142.65;76.75;;;;;;;11.76;37.94;97562.81;5010808;28;20022;-88
2022/01/28 07:47:10;;;;;;;152.55;70.05;;;;;;;11.59;38.67;97563.03;4994188;28;20091;-88
2022/01/28 07:49:36;;;;;;;135.93;59.33;;;;;;;12.12;37.59;97594.31;4994706;28;20542;-88
2022/01/28 07:52:02;;;;;;;119.50;58.78;;;;;;;12.22;37.14;97578.47;4996158;28;20129;-88
2022/01/28 07:54:50;;;;;;;235.98;103.78;;;;;;;11.66;39.19;97548.25;5008068;28;20029;-87
2022/01/28 07:57:25;;;;;;;105.32;53.28;;;;;;;10.28;40.27;97581.16;5026998;28;20061;-88
2022/01/28 07:59:51;;;;;;;227.02;96.88;;;;;;;10.90;41.57;97595.16;4995346;28;20042;-88
2022/01/28 08:02:16;;;;;;;40.78;17.60;;;;;;;13.20;36.24;97592.16;4998284;28;20053;-87
2022/01/28 08:04:42;;;;;;;23.77;13.93;;;;;;;13.55;34.61;97572.50;5015492;28;20087;-88
2022/01/28 08:07:08;;;;;;;31.58;15.23;;;;;;;12.95;36.03;97593.03;4999132;28;20034;-87
2022/01/28 08:09:33;;;;;;;44.67;18.33;;;;;;;12.42;38.22;97603.00;4999129;28;20026;-87
2022/01/28 08:12:41;;;;;;;;;;;;;;;;;;;;;
2022/01/28 08:15:08;;;;;;;20.58;10.98;;;;;;;14.33;33.70;97562.16;5011831;28;20045;-88
2022/01/28 08:17:34;;;;;;;22.48;13.48;;;;;;;15.23;31.56;97566.66;4997606;28;20106;-88
2022/01/28 08:19:59;;;;;;;29.52;15.90;;;;;;;14.95;33.59;97556.41;5004935;28;20026;-89
2022/01/28 08:22:25;;;;;;;44.65;15.50;;;;;;;14.49;32.35;97562.69;5011381;28;20026;-86
2022/01/28 08:24:50;;;;;;;50.58;14.77;;;;;;;13.86;33.20;97556.78;4985526;28;20068;-88
2022/01/28 08:27:16;;;;;;;33.97;18.67;;;;;;;12.72;35.13;97558.88;4998620;28;20033;-86
2022/01/28 08:29:41;;;;;;;21.30;12.25;;;;;;;12.78;35.18;97562.00;4997647;28;20033;-86
2022/01/28 08:32:07;;;;;;;26.98;13.57;;;;;;;12.45;37.01;97565.22;4997323;28;20096;-86
2022/01/28 08:34:33;;;;;;;32.70;15.82;;;;;;;12.78;36.01;97558.44;5013569;28;20029;-87
2022/01/28 08:37:03;;;;;;;26.35;14.85;;;;;;;12.94;36.58;97573.38;4995853;28;20041;-86
2022/01/28 08:39:29;;;;;;;32.30;13.30;;;;;;;12.86;36.30;97559.63;4997767;28;20087;-87
2022/01/28 08:41:55;;;;;;;24.58;11.40;;;;;;;11.79;37.09;97551.00;4997517;28;20030;-87
2022/01/28 08:44:20;;;;;;;31.13;14.88;;;;;;;12.48;38.42;97565.00;5013867;28;20038;-87
2022/01/28 08:46:46;;;;;;;23.20;9.77;;;;;;;12.36;36.34;97565.00;4997856;28;20084;-87
2022/01/28 08:49:12;;;;;;;29.10;11.70;;;;;;;11.31;37.49;97553.25;5011062;28;20041;-87
2022/01/28 08:51:37;;;;;;;21.13;9.55;;;;;;;10.33;40.33;97584.44;4996984;28;20099;-86
2022/01/28 08:54:03;;;;;;;33.42;10.90;;;;;;;10.37;40.01;97589.59;5003823;28;20155;-87
2022/01/28 08:56:29;;;;;;;24.65;9.98;;;;;;;9.92;40.68;97588.66;5029068;28;20393;-86
2022/01/28 08:58:55;;;;;;;30.00;10.73;;;;;;;9.46;40.99;97581.59;4997507;28;20026;-85
2022/01/28 09:01:20;;;;;;;49.45;16.83;;;;;;;9.94;40.71;97592.09;4997137;28;20030;-86
2022/01/28 09:03:47;;;;;;;38.72;15.02;;;;;;;9.90;40.26;97606.63;4996913;28;20030;-86
2022/01/28 09:06:13;;;;;;;39.55;17.50;;;;;;;9.72;41.30;97599.66;5013478;28;20026;-85
2022/01/28 09:08:40;;;;;;;34.97;15.23;;;;;;;9.64;41.70;97596.56;5013011;28;20030;-86
2022/01/28 09:13:52;;;;;;;26.70;13.63;;;;;;;10.40;41.08;97610.81;4996599;28;20416;-87
2022/01/28 09:16:32;;;;;;;37.65;15.48;;;;;;;11.18;40.73;97615.72;5013219;28;20099;-86
2022/01/28 09:18:58;;;;;;;39.80;18.70;;;;;;;10.88;40.72;97621.19;4982419;28;20042;-87
2022/01/28 09:21:24;;;;;;;38.63;16.42;;;;;;;10.92;40.52;97620.00;5009926;28;20141;-85
2022/01/28 09:27:00;;;;;;;46.53;19.50;;;;;;;10.66;40.50;97577.97;4961673;28;20609;-86
2022/01/28 09:29:26;;;;;;;47.38;19.75;;;;;;;10.95;40.79;97600.25;4993360;28;20157;-86
2022/01/28 09:32:13;;;;;;;37.30;17.77;;;;;;;10.47;41.79;97574.69;5006339;28;20478;-88
2022/01/28 09:34:38;;;;;;;50.78;19.40;;;;;;;10.52;42.33;97636.81;4997018;28;20494;-85
2022/01/28 09:37:04;;;;;;;52.63;22.30;;;;;;;10.54;43.54;97645.59;5012933;28;20057;-87
2022/01/28 09:39:35;;;;;;;52.28;24.05;;;;;;;10.36;44.27;97625.31;5006858;28;20033;-87
2022/01/28 09:42:03;;;;;;;48.85;23.33;;;;;;;10.53;43.48;97654.56;4997213;28;20052;-87
2022/01/28 09:44:31;;;;;;;60.08;21.05;;;;;;;10.42;42.80;97657.88;4996572;28;20037;-87
2022/01/28 09:47:00;;;;;;;39.50;20.67;;;;;;;10.13;43.20;97640.88;5012918;28;20057;-87
2022/01/28 09:49:30;;;;;;;81.03;22.92;;;;;;;10.29;43.25;97644.38;4994166;28;20034;-87
2022/01/28 09:51:55;;;;;;;58.65;22.38;;;;;;;10.31;42.85;97645.16;4995323;28;20030;-87
2022/01/28 09:54:24;;;;;;;71.15;28.88;;;;;;;10.45;43.25;97654.16;5010536;28;20033;-85
2022/01/28 09:56:50;;;;;;;103.45;49.78;;;;;;;10.59;42.44;97652.38;5010850;28;20092;-87
2022/01/28 09:59:40;;;;;;;52.63;25.23;;;;;;;10.78;43.27;97654.81;4995417;28;20041;-87
2022/01/28 10:02:05;;;;;;;43.80;21.42;;;;;;;10.77;43.88;97626.31;5003994;28;20552;-87
2022/01/28 10:04:31;;;;;;;74.43;31.92;;;;;;;10.93;42.75;97645.81;4991276;28;20046;-87
2022/01/28 10:06:57;;;;;;;52.92;21.83;;;;;;;11.02;41.67;97634.56;4992515;28;20026;-88
2022/01/28 10:09:23;;;;;;;44.10;20.13;;;;;;;11.07;40.51;97621.75;4995579;28;20025;-88
2022/01/28 10:11:53;;;;;;;70.30;29.00;;;;;;;10.68;41.17;97622.41;5025502;28;20025;-87
2022/01/28 10:14:23;;;;;;;61.42;31.92;;;;;;;10.43;43.46;97634.69;4996385;28;20099;-87
2022/01/28 10:17:00;;;;;;;94.35;42.22;;;;;;;10.11;44.30;97636.56;5009516;28;20136;-88
2022/01/28 10:19:27;;;;;;;112.22;52.15;;;;;;;10.34;43.94;97647.63;4991992;28;20065;-86
2022/01/28 10:21:54;;;;;;;81.60;37.38;;;;;;;10.83;42.58;97652.69;5003601;28;20029;-88
2022/01/28 10:24:26;;;;;;;65.30;34.22;;;;;;;10.92;42.02;97646.78;4991385;28;20089;-87
2022/01/28 10:27:06;;;;;;;75.72;41.20;;;;;;;10.72;41.84;97640.00;4996394;28;20036;-87
2022/01/28 10:29:34;;;;;;;54.05;27.50;;;;;;;10.62;40.51;97643.31;4997281;28;20562;-87
2022/01/28 10:32:14;;;;;;;40.20;23.35;;;;;;;10.42;40.61;97633.81;4995441;28;20497;-87
2022/01/28 10:34:40;;;;;;;175.20;80.78;;;;;;;10.60;42.73;97635.38;4994893;28;20026;-86
2022/01/28 10:37:13;;;;;;;39.28;21.08;;;;;;;10.62;41.06;97637.94;5027666;28;20022;-87
2022/01/28 10:39:41;;;;;;;44.58;22.50;;;;;;;10.87;41.71;97646.22;5032416;28;20124;-88
2022/01/28 10:42:07;;;;;;;49.17;26.65;;;;;;;10.31;42.50;97658.50;4994090;28;20026;-89
2022/01/28 10:44:33;;;;;;;51.80;26.88;;;;;;;10.36;43.82;97660.06;4995616;28;20035;-87
2022/01/28 10:47:00;;;;;;;41.75;20.92;;;;;;;10.95;41.93;97651.94;4993280;28;20475;-87
2022/01/28 10:49:34;;;;;;;24.13;14.18;;;;;;;11.08;40.79;97647.56;4995542;28;20053;-87
2022/01/28 10:52:05;;;;;;;27.40;14.02;;;;;;;10.99;40.74;97626.72;4992642;28;20493;-89
2022/01/28 10:54:31;;;;;;;29.45;15.30;;;;;;;11.63;39.93;97628.00;5015735;28;20096;-88
2022/01/28 10:57:01;;;;;;;36.97;17.42;;;;;;;12.25;38.30;97611.31;5012841;28;20050;-87
2022/01/28 10:59:38;;;;;;;41.53;19.77;;;;;;;12.73;38.13;97590.13;4996178;28;20084;-87
2022/01/28 11:02:05;;;;;;;43.40;21.83;;;;;;;12.48;39.39;97612.44;4982568;28;20474;-87
2022/01/28 11:04:31;;;;;;;42.67;22.20;;;;;;;12.56;39.65;97628.00;5011344;28;20026;-87
2022/01/28 11:06:58;;;;;;;35.30;20.80;;;;;;;13.05;39.12;97628.97;5008469;28;20049;-87
2022/01/28 11:09:24;;;;;;;43.38;22.90;;;;;;;13.42;38.62;97611.13;4987654;28;20413;-87
2022/01/28 11:11:51;;;;;;;54.70;30.85;;;;;;;14.42;36.16;97607.22;4997733;28;20112;-88
2022/01/28 11:14:18;;;;;;;60.58;32.10;;;;;;;16.03;36.25;97600.50;4995675;28;20030;-88
2022/01/28 11:16:44;;;;;;;55.30;31.05;;;;;;;15.72;34.43;97590.53;5010874;28;20029;-87
2022/01/28 11:19:13;;;;;;;43.90;24.30;;;;;;;15.49;32.80;97554.69;4994771;28;20125;-88
2022/01/28 11:22:04;;;;;;;63.80;33.53;;;;;;;16.51;32.83;97582.06;4994628;28;20108;-88
2022/01/28 11:25:06;;;;;;;99.70;32.50;;;;;;;16.69;32.57;97564.31;4994944;28;20026;-87
2022/01/28 11:27:35;;;;;;;40.87;23.60;;;;;;;16.94;31.50;97557.63;5020745;28;20481;-89
2022/01/28 11:30:19;;;;;;;25.00;13.38;;;;;;;17.63;29.32;97545.09;4993840;28;20305;-88
2022/01/28 11:33:07;;;;;;;14.18;8.15;;;;;;;17.19;29.88;97542.81;4993017;28;20030;-88
2022/01/28 11:35:49;;;;;;;17.15;9.32;;;;;;;15.96;31.82;97548.06;5010235;28;20041;-88
2022/01/28 11:38:44;;;;;;;11.20;5.15;;;;;;;14.54;33.16;97560.50;5012422;28;20034;-88
2022/01/28 11:41:17;;;;;;;10.68;5.70;;;;;;;14.23;33.46;97555.72;4984058;28;20041;-88
2022/01/28 11:43:49;;;;;;;11.93;7.45;;;;;;;14.28;33.65;97547.28;4993628;28;20064;-88
2022/01/28 11:46:27;;;;;;;21.17;13.30;;;;;;;13.76;35.40;97579.94;4994538;28;20489;-87
2022/01/28 11:48:54;;;;;;;19.48;10.70;;;;;;;13.83;34.29;97562.41;4994371;28;20513;-89
2022/01/28 11:51:28;;;;;;;26.73;11.98;;;;;;;13.17;35.16;97560.13;5026365;28;20300;-88
2022/01/28 11:53:56;;;;;;;22.75;10.48;;;;;;;13.00;35.80;97561.34;4992998;28;20037;-88
2022/01/28 11:56:24;;;;;;;19.30;9.13;;;;;;;13.36;36.22;97573.97;4993636;28;20563;-88
2022/01/28 11:59:09;;;;;;;14.20;7.45;;;;;;;13.10;35.59;97565.13;5009345;28;20061;-88
2022/01/28 12:01:40;;;;;;;18.13;8.73;;;;;;;12.87;36.38;97568.53;5006939;28;20042;-88
2022/01/28 12:04:29;;;;;;;15.70;8.32;;;;;;;12.44;37.44;97578.72;5025861;28;20068;-89
2022/01/28 12:06:58;;;;;;;15.15;8.25;;;;;;;12.47;37.59;97579.38;5025567;28;20053;-88
2022/01/28 12:09:24;;;;;;;19.00;9.60;;;;;;;12.11;37.25;97589.94;5026000;28;20037;-88
2022/01/28 12:11:50;;;;;;;18.38;8.93;;;;;;;12.06;37.73;97580.50;4992537;28;20038;-88
2022/01/28 12:14:17;;;;;;;29.50;13.40;;;;;;;11.87;37.36;97573.66;4992650;28;20427;-89
2022/01/28 12:16:46;;;;;;;25.17;12.65;;;;;;;11.70;38.56;97575.75;4992362;28;20474;-88
2022/01/28 12:19:19;;;;;;;24.75;11.32;;;;;;;11.37;38.54;97576.09;5009726;28;20037;-88
2022/01/28 12:22:09;;;;;;;16.35;7.07;;;;;;;11.28;39.04;97582.06;4991084;28;20118;-88
2022/01/28 12:24:37;;;;;;;24.77;13.90;;;;;;;11.07;39.11;97586.97;5009036;28;20107;-88
2022/01/28 12:27:06;;;;;;;22.80;12.52;;;;;;;11.17;38.53;97590.75;5009282;28;20029;-88
2022/01/28 12:29:52;;;;;;;17.75;10.00;;;;;;;10.80;38.31;97570.81;5025806;28;20129;-88
2022/01/28 12:32:22;;;;;;;20.65;9.65;;;;;;;10.98;39.04;97581.31;5006118;28;20073;-88
2022/01/28 12:34:48;;;;;;;17.05;9.10;;;;;;;11.21;38.48;97573.53;4991350;28;20022;-87
2022/01/28 12:37:14;;;;;;;16.65;8.77;;;;;;;11.29;39.45;97581.94;5009396;28;20022;-88
2022/01/28 12:39:50;;;;;;;18.95;8.15;;;;;;;11.32;38.67;97591.63;4992111;28;20029;-88
2022/01/28 12:44:56;;;;;;;15.77;8.45;;;;;;;11.46;38.54;97578.19;5009087;28;20029;-88
2022/01/28 12:47:24;;;;;;;18.13;10.43;;;;;;;11.38;38.96;97580.50;4989006;28;20406;-88
2022/01/28 12:49:54;;;;;;;20.50;11.30;;;;;;;11.02;39.33;97573.00;4987489;28;20085;-89
2022/01/28 12:52:20;;;;;;;17.90;9.40;;;;;;;10.72;40.09;97575.78;5011988;28;20063;-87
2022/01/28 12:54:46;;;;;;;18.75;8.82;;;;;;;10.64;39.56;97567.34;4995873;28;20041;-88
2022/01/28 12:57:13;;;;;;;21.55;10.90;;;;;;;10.32;41.51;97573.81;5011517;28;20057;-88
2022/01/28 12:59:41;;;;;;;22.10;10.07;;;;;;;10.58;40.28;97578.44;5010610;28;20486;-88